Time;durP1;ratioP1;P1;durP2;ratioP2;P2;SDS_P1;SDS_P2;PMS_P1;PMS_P2;Temp;Humidity;BMP_temperature;BMP_pressure;BME280_temperature;BME280_humidity;BME280_pressure;Samples;Min_cycle;Max_cycle;Signal;HPM_P1;HPM_P2
2022/09/05 00:02:29;;;;;;;6.23;5.23;;;14.30;99.90;;;;;;5114344;28;20202;-73
2022/09/05 00:05:06;;;;;;;6.17;5.57;;;14.30;99.90;;;;;;5114595;28;20237;-73
2022/09/05 00:07:45;;;;;;;5.73;5.23;;;14.20;99.90;;;;;;5114421;28;20289;-74
2022/09/05 00:10:20;;;;;;;7.20;5.33;;;14.10;99.90;;;;;;5114229;28;20203;-73
2022/09/05 00:12:47;;;;;;;5.77;5.17;;;14.10;99.90;;;;;;5114298;28;20248;-73
2022/09/05 00:15:23;;;;;;;5.93;5.33;;;14.00;99.90;;;;;;5114373;28;20227;-75
2022/09/05 00:18:10;;;;;;;5.37;4.93;;;13.90;99.90;;;;;;5114227;28;20195;-75
2022/09/05 00:20:48;;;;;;;5.50;5.00;;;14.00;99.90;;;;;;5114242;28;20245;-74
2022/09/05 00:23:22;;;;;;;5.50;5.00;;;13.90;99.90;;;;;;5113987;28;20195;-73
2022/09/05 00:26:03;;;;;;;6.40;5.80;;;13.90;99.90;;;;;;5113908;28;20651;-76
2022/09/05 00:28:36;;;;;;;6.63;6.03;;;13.70;99.90;;;;;;5114039;28;20195;-74
2022/09/05 00:31:18;;;;;;;5.70;5.20;;;13.70;99.90;;;;;;5113977;28;20203;-74
2022/09/05 00:33:51;;;;;;;5.90;5.40;;;13.70;99.90;;;;;;5113759;28;20730;-77
2022/09/05 00:36:26;;;;;;;5.67;5.13;;;13.60;99.90;;;;;;5113912;28;20200;-75
2022/09/05 00:38:58;;;;;;;6.27;5.63;;;13.60;99.90;;;;;;5113879;28;20198;-74
2022/09/05 00:41:27;;;;;;;6.33;5.73;;;13.50;99.90;;;;;;5113845;28;20569;-75
2022/09/05 00:43:55;;;;;;;5.87;5.20;;;13.50;99.90;;;;;;5113639;28;20200;-75
2022/09/05 00:46:28;;;;;;;6.33;5.73;;;13.50;99.90;;;;;;5113889;28;20196;-75
2022/09/05 00:49:10;;;;;;;6.07;5.47;;;13.40;99.90;;;;;;5113711;28;20268;-75
2022/09/05 00:51:41;;;;;;;6.23;5.30;;;13.50;99.90;;;;;;5113781;28;20226;-76
2022/09/05 00:54:31;;;;;;;6.20;5.70;;;13.60;99.90;;;;;;5113484;28;20617;-74
2022/09/05 00:57:07;;;;;;;8.30;6.13;;;13.40;99.90;;;;;;5113544;28;20695;-75
2022/09/05 01:00:04;;;;;;;7.03;6.33;;;13.50;99.90;;;;;;5113684;28;20195;-75
2022/09/05 01:03:08;;;;;;;7.10;6.40;;;13.50;99.90;;;;;;5096912;28;20261;-75
2022/09/05 01:05:49;;;;;;;7.23;6.53;;;13.40;99.90;;;;;;5113608;28;20199;-76
2022/09/05 01:08:57;;;;;;;6.67;6.07;;;13.30;99.90;;;;;;5113584;28;20257;-75
2022/09/05 01:11:36;;;;;;;7.60;6.90;;;13.20;99.90;;;;;;5103115;28;20203;-76
2022/09/05 01:14:16;;;;;;;7.20;6.60;;;13.20;99.90;;;;;;5113491;28;20223;-76
2022/09/05 01:17:00;;;;;;;7.90;6.77;;;13.10;99.90;;;;;;5113516;28;20342;-73
2022/09/05 01:19:38;;;;;;;7.07;6.40;;;13.10;99.90;;;;;;5113290;28;20589;-76
2022/09/05 01:22:38;;;;;;;7.73;6.80;;;13.20;99.90;;;;;;5113182;28;20207;-76
2022/09/05 01:25:28;;;;;;;7.90;6.80;;;13.20;99.90;;;;;;5113388;28;20196;-76
2022/09/05 01:28:01;;;;;;;8.23;7.43;;;13.30;99.90;;;;;;5102448;28;20203;-75
2022/09/05 01:30:35;;;;;;;8.40;7.60;;;13.30;99.90;;;;;;5113580;28;20196;-74
2022/09/05 01:33:14;;;;;;;7.63;6.90;;;13.20;99.90;;;;;;5113219;28;20220;-76
2022/09/05 01:36:04;;;;;;;7.90;7.20;;;13.20;99.90;;;;;;5113194;28;20303;-75
2022/09/05 01:38:39;;;;;;;9.03;7.70;;;13.10;99.90;;;;;;5113277;28;20195;-74
2022/09/05 01:41:20;;;;;;;8.07;7.37;;;13.10;99.90;;;;;;5113326;28;20195;-76
2022/09/05 01:44:10;;;;;;;8.10;7.30;;;13.10;99.90;;;;;;5113181;28;20195;-76
2022/09/05 01:46:44;;;;;;;7.73;7.03;;;13.00;99.90;;;;;;5113030;28;20647;-75
2022/09/05 01:49:23;;;;;;;8.43;7.53;;;12.90;99.90;;;;;;5113014;28;20627;-76
2022/09/05 01:52:11;;;;;;;8.03;7.33;;;12.90;99.90;;;;;;5113163;28;20196;-75
2022/09/05 01:54:53;;;;;;;8.33;7.57;;;12.80;99.90;;;;;;5112848;28;20223;-75
2022/09/05 01:57:31;;;;;;;8.93;6.97;;;12.80;99.90;;;;;;5113209;28;20205;-76
2022/09/05 02:00:07;;;;;;;9.40;7.17;;;12.70;99.90;;;;;;5112931;28;20261;-75
2022/09/05 02:02:53;;;;;;;8.83;6.97;;;12.60;99.90;;;;;;5113033;28;20207;-75
2022/09/05 02:05:33;;;;;;;8.40;7.07;;;12.60;99.90;;;;;;5112896;28;20199;-75
2022/09/05 02:08:19;;;;;;;7.93;7.13;;;12.60;99.90;;;;;;5112846;28;20745;-75
2022/09/05 02:11:00;;;;;;;9.33;8.53;;;12.60;99.90;;;;;;5112891;28;20199;-75
2022/09/05 02:13:39;;;;;;;9.47;8.50;;;12.60;99.90;;;;;;5112665;28;20214;-75
2022/09/05 02:16:17;;;;;;;9.80;8.80;;;12.60;99.90;;;;;;5112831;28;20223;-74
2022/09/05 02:18:53;;;;;;;8.93;8.13;;;12.50;99.90;;;;;;5112548;28;20654;-74
2022/09/05 02:21:36;;;;;;;11.17;8.40;;;12.50;99.90;;;;;;5112760;28;20199;-75
2022/09/05 02:24:12;;;;;;;9.33;8.43;;;12.60;99.90;;;;;;5112578;28;20241;-75
2022/09/05 02:26:47;;;;;;;11.37;9.73;;;12.50;99.90;;;;;;5112863;28;20231;-75
2022/09/05 02:29:19;;;;;;;10.90;9.80;;;12.50;99.90;;;;;;5112720;28;20609;-75
2022/09/05 02:31:50;;;;;;;11.13;9.40;;;12.60;99.90;;;;;;5112525;28;20666;-74
2022/09/05 02:34:24;;;;;;;10.43;9.33;;;12.60;99.90;;;;;;5115868;28;20223;-75
2022/09/05 02:37:01;;;;;;;9.60;8.60;;;12.70;99.90;;;;;;5116389;28;20195;-75
2022/09/05 02:39:37;;;;;;;9.50;8.60;;;12.60;99.90;;;;;;5116066;28;20658;-74
2022/09/05 02:42:13;;;;;;;11.60;8.83;;;12.50;99.90;;;;;;5116093;28;20199;-75
2022/09/05 02:44:50;;;;;;;10.27;9.17;;;12.40;99.90;;;;;;5116030;28;20217;-75
2022/09/05 02:47:22;;;;;;;10.40;8.87;;;12.40;99.90;;;;;;5116310;28;20264;-75
2022/09/05 02:49:59;;;;;;;10.00;9.00;;;12.50;99.90;;;;;;5116023;28;20245;-75
2022/09/05 02:52:29;;;;;;;11.07;8.33;;;12.50;99.90;;;;;;5115902;28;20203;-75
2022/09/05 02:54:58;;;;;;;10.47;8.80;;;12.40;99.90;;;;;;5115538;28;20242;-74
2022/09/05 02:57:42;;;;;;;10.43;9.33;;;12.40;99.90;;;;;;5115748;28;20264;-75
2022/09/05 03:00:13;;;;;;;10.53;9.30;;;12.40;99.90;;;;;;5115843;28;20192;-75
2022/09/05 03:03:01;;;;;;;9.70;8.77;;;12.40;99.90;;;;;;5115680;28;20199;-75
2022/09/05 03:05:32;;;;;;;13.30;8.77;;;12.50;99.90;;;;;;5115643;28;20195;-75
2022/09/05 03:08:15;;;;;;;11.67;8.83;;;12.40;99.90;;;;;;5115867;28;20253;-75
2022/09/05 03:11:19;;;;;;;9.63;8.63;;;12.40;99.90;;;;;;5115651;28;20448;-75
2022/09/05 03:14:24;;;;;;;9.13;8.07;;;12.40;99.90;;;;;;5115501;28;20199;-75
2022/09/05 03:17:14;;;;;;;11.30;9.00;;;12.20;99.90;;;;;;5115533;28;20244;-75
2022/09/05 03:20:27;;;;;;;11.57;9.10;;;12.30;99.90;;;;;;5115364;28;20609;-75
2022/09/05 03:23:51;;;;;;;9.03;7.93;;;12.30;99.90;;;;;;5115495;28;20199;-75
2022/09/05 03:26:51;;;;;;;9.73;8.77;;;12.30;99.90;;;;;;5115205;28;20200;-75
2022/09/05 03:29:52;;;;;;;10.90;9.00;;;12.30;99.90;;;;;;5115272;28;20199;-74
2022/09/05 03:32:57;;;;;;;10.17;8.60;;;12.50;99.90;;;;;;5115278;28;20272;-75
2022/09/05 03:36:09;;;;;;;9.60;8.70;;;12.50;99.90;;;;;;5114850;28;20219;-74
2022/09/05 03:39:22;;;;;;;10.20;9.20;;;12.40;99.90;;;;;;5114877;28;20199;-76
2022/09/05 03:42:11;;;;;;;10.43;9.40;;;12.40;99.90;;;;;;5090991;28;20234;-74
2022/09/05 03:44:58;;;;;;;10.87;8.50;;;12.40;99.90;;;;;;5095768;28;20256;-75
2022/09/05 03:48:01;;;;;;;10.17;8.70;;;12.40;99.90;;;;;;5114671;28;20200;-75
2022/09/05 03:50:35;;;;;;;13.63;8.90;;;12.40;99.90;;;;;;5089336;28;20615;-79
2022/09/05 03:53:31;;;;;;;10.13;8.43;;;12.40;99.90;;;;;;5114795;28;20236;-76
2022/09/05 03:56:12;;;;;;;10.53;8.70;;;12.30;99.90;;;;;;5114279;28;20629;-76
2022/09/05 03:59:01;;;;;;;10.47;9.30;;;12.40;99.90;;;;;;5114680;28;20200;-75
2022/09/05 04:01:34;;;;;;;9.63;8.63;;;12.30;99.90;;;;;;5114583;28;20195;-76
2022/09/05 04:04:06;;;;;;;10.13;9.13;;;12.20;99.90;;;;;;5114362;28;20204;-76
2022/09/05 04:06:37;;;;;;;11.27;8.70;;;12.20;99.90;;;;;;5114482;28;20204;-76
2022/09/05 04:09:12;;;;;;;10.03;8.97;;;12.20;99.90;;;;;;5114458;28;20244;-76
2022/09/05 04:11:45;;;;;;;11.27;10.07;;;12.20;99.90;;;;;;5114319;28;20241;-75
2022/09/05 04:14:21;;;;;;;11.20;10.00;;;12.20;99.90;;;;;;5114370;28;20268;-76
2022/09/05 04:16:50;;;;;;;9.67;8.67;;;12.20;99.90;;;;;;5114377;28;20260;-75
2022/09/05 04:19:25;;;;;;;10.40;9.27;;;12.20;99.90;;;;;;5114308;28;20206;-76
2022/09/05 04:22:03;;;;;;;11.10;9.97;;;12.10;99.90;;;;;;5114167;28;20195;-76
2022/09/05 04:24:38;;;;;;;9.93;8.93;;;12.20;99.90;;;;;;5114097;28;20195;-76
2022/09/05 04:27:29;;;;;;;11.30;8.90;;;12.20;99.90;;;;;;5113987;28;20200;-76
2022/09/05 04:30:00;;;;;;;12.37;9.00;;;12.20;99.90;;;;;;5114047;28;20558;-76
2022/09/05 04:32:40;;;;;;;12.13;8.70;;;12.00;99.90;;;;;;5113989;28;20207;-75
2022/09/05 04:35:31;;;;;;;10.87;9.30;;;12.00;99.90;;;;;;5113818;28;20215;-76
2022/09/05 04:38:08;;;;;;;10.17;9.17;;;12.00;99.90;;;;;;5113820;28;20191;-75
2022/09/05 04:40:42;;;;;;;12.73;9.00;;;11.90;99.90;;;;;;5113840;28;20195;-76
2022/09/05 04:43:19;;;;;;;9.47;8.50;;;11.90;99.90;;;;;;5113710;28;20278;-76
2022/09/05 04:45:52;;;;;;;10.10;8.80;;;11.80;99.90;;;;;;5113613;28;20200;-76
2022/09/05 04:48:23;;;;;;;10.97;9.20;;;11.90;99.90;;;;;;5113698;28;20198;-76
2022/09/05 04:51:06;;;;;;;10.93;9.80;;;11.90;99.90;;;;;;5113768;28;20199;-76
2022/09/05 04:54:00;;;;;;;14.23;10.10;;;12.00;99.90;;;;;;5113566;28;20203;-76
2022/09/05 04:56:31;;;;;;;10.77;9.67;;;12.00;99.90;;;;;;5112414;28;20240;-75
2022/09/05 04:59:04;;;;;;;13.17;10.57;;;12.10;99.90;;;;;;5113594;28;20767;-76
2022/09/05 05:01:38;;;;;;;11.30;9.60;;;12.20;99.90;;;;;;5113505;28;20266;-76
2022/09/05 05:04:07;;;;;;;11.67;9.80;;;12.20;99.90;;;;;;5113451;28;20200;-76
2022/09/05 05:06:39;;;;;;;14.83;11.60;;;12.30;99.90;;;;;;5113251;28;20199;-76
2022/09/05 05:09:14;;;;;;;12.20;9.63;;;12.30;99.90;;;;;;5113616;28;20672;-76
2022/09/05 05:11:48;;;;;;;11.73;9.80;;;12.40;99.90;;;;;;5113437;28;20206;-76
2022/09/05 05:14:21;;;;;;;10.60;9.47;;;12.40;99.90;;;;;;5113448;28;20195;-76
2022/09/05 05:16:52;;;;;;;10.27;8.93;;;12.30;99.90;;;;;;5113106;28;20771;-76
2022/09/05 05:19:23;;;;;;;10.00;8.97;;;12.30;99.90;;;;;;5113380;28;20211;-76
2022/09/05 05:21:53;;;;;;;10.17;9.17;;;12.40;99.90;;;;;;5113305;28;20252;-76
2022/09/05 05:24:24;;;;;;;11.33;8.80;;;12.40;99.90;;;;;;5113236;28;20240;-76
2022/09/05 05:26:57;;;;;;;9.40;8.40;;;12.50;99.90;;;;;;5113278;28;20283;-76
2022/09/05 05:29:33;;;;;;;8.57;7.70;;;12.50;99.90;;;;;;5113040;28;20207;-76
2022/09/05 05:32:02;;;;;;;9.50;8.50;;;12.60;99.90;;;;;;5112979;28;20252;-76
2022/09/05 05:34:34;;;;;;;9.13;8.23;;;12.70;99.90;;;;;;5113164;28;20252;-76
2022/09/05 05:37:05;;;;;;;9.27;8.10;;;12.70;99.90;;;;;;5112978;28;20272;-76
2022/09/05 05:39:37;;;;;;;10.87;8.10;;;12.90;99.90;;;;;;5113237;28;20260;-75
2022/09/05 05:42:04;;;;;;;9.00;7.80;;;12.90;99.90;;;;;;5112790;28;20230;-76
2022/09/05 05:44:36;;;;;;;13.90;7.47;;;13.00;99.90;;;;;;5112924;28;20601;-76
2022/09/05 05:47:08;;;;;;;11.70;6.80;;;13.00;99.90;;;;;;5113160;28;20207;-76
2022/09/05 05:49:45;;;;;;;10.50;6.90;;;13.10;99.90;;;;;;5113100;28;20196;-76
2022/09/05 05:52:48;;;;;;;12.10;7.27;;;13.20;99.90;;;;;;5112772;28;20240;-76
2022/09/05 05:55:37;;;;;;;9.87;7.07;;;13.40;99.90;;;;;;5112855;28;20283;-76
2022/09/05 05:58:18;;;;;;;8.40;7.60;;;13.60;99.90;;;;;;5113056;28;20200;-76
2022/09/05 06:01:25;;;;;;;9.53;7.20;;;13.70;99.90;;;;;;5112824;28;20562;-76
2022/09/05 06:04:22;;;;;;;8.50;7.27;;;13.80;99.90;;;;;;5112968;28;20191;-76
2022/09/05 06:07:03;;;;;;;12.27;7.27;;;14.00;99.90;;;;;;5114141;28;20196;-76
2022/09/05 06:10:04;;;;;;;10.37;8.00;;;14.20;99.90;;;;;;5116861;28;20616;-76
2022/09/05 06:13:10;;;;;;;9.47;8.40;;;14.50;99.90;;;;;;5116859;28;20200;-76
2022/09/05 06:16:13;;;;;;;11.10;8.60;;;14.70;99.90;;;;;;5116589;28;20223;-76
2022/09/05 06:19:11;;;;;;;10.73;7.97;;;14.90;99.90;;;;;;5116778;28;20195;-75
2022/09/05 06:22:22;;;;;;;8.60;7.70;;;15.00;99.90;;;;;;5116847;28;20650;-75
2022/09/05 06:25:37;;;;;;;8.27;7.47;;;15.20;99.90;;;;;;5033746;28;20720;-75
2022/09/05 06:28:22;;;;;;;7.93;6.43;;;15.50;99.90;;;;;;5116656;28;20199;-75
2022/09/05 06:31:04;;;;;;;7.90;6.63;;;15.70;99.90;;;;;;5116393;28;20199;-75
2022/09/05 06:33:45;;;;;;;9.17;7.67;;;15.80;99.90;;;;;;5116293;28;20195;-76
2022/09/05 06:36:25;;;;;;;10.48;7.20;;;16.00;99.90;;;;;;5116144;28;20231;-75
2022/09/05 06:39:03;;;;;;;8.20;7.25;;;16.20;99.90;;;;;;5116376;28;20195;-75
2022/09/05 06:41:42;;;;;;;7.05;6.40;;;16.30;99.90;;;;;;5116188;28;20192;-75
2022/09/05 06:44:33;;;;;;;9.07;7.32;;;16.40;99.90;;;;;;5116041;28;20195;-77
2022/09/05 06:47:05;;;;;;;7.72;6.93;;;16.60;99.90;;;;;;5116325;28;20196;-75
2022/09/05 06:49:47;;;;;;;7.47;6.78;;;16.70;99.90;;;;;;5116166;28;20618;-75
2022/09/05 06:52:36;;;;;;;7.18;6.57;;;16.90;99.90;;;;;;5115916;28;20200;-75
2022/09/05 06:55:32;;;;;;;7.38;6.65;;;17.00;99.90;;;;;;5115664;28;20242;-75
2022/09/05 06:58:22;;;;;;;7.95;7.15;;;17.20;99.90;;;;;;5081168;28;20199;-75
2022/09/05 07:00:51;;;;;;;10.63;8.65;;;17.50;99.90;;;;;;5115825;28;20199;-75
2022/09/05 07:03:34;;;;;;;10.90;8.45;;;17.60;99.90;;;;;;5115582;28;20195;-75
2022/09/05 07:06:07;;;;;;;10.80;8.70;;;17.80;99.90;;;;;;5115767;28;20191;-75
2022/09/05 07:08:50;;;;;;;10.32;7.43;;;18.00;99.90;;;;;;5115546;28;20195;-75
2022/09/05 07:11:19;;;;;;;7.60;6.80;;;18.10;99.90;;;;;;5115470;28;20234;-75
2022/09/05 07:13:57;;;;;;;8.85;6.85;;;18.20;99.90;;;;;;5115267;28;20654;-75
2022/09/05 07:16:36;;;;;;;9.23;6.65;;;18.30;99.90;;;;;;5115546;28;20223;-75
2022/09/05 07:19:16;;;;;;;9.60;6.97;;;18.50;99.90;;;;;;5114748;28;20218;-75
2022/09/05 07:21:56;;;;;;;9.57;6.35;;;18.70;99.90;;;;;;5115252;28;20237;-75
2022/09/05 07:24:27;;;;;;;10.35;6.95;;;18.90;99.90;;;;;;5115383;28;20643;-75
2022/09/05 07:26:58;;;;;;;7.75;6.55;;;19.10;99.90;;;;;;5115418;28;20211;-77
2022/09/05 07:29:29;;;;;;;6.47;5.82;;;19.30;99.90;;;;;;5115338;28;20248;-75
2022/09/05 07:31:58;;;;;;;8.00;5.93;;;19.50;99.90;;;;;;5115211;28;20625;-75
2022/09/05 07:34:28;;;;;;;6.30;5.70;;;19.70;99.90;;;;;;5114954;28;20199;-75
2022/09/05 07:36:58;;;;;;;6.18;5.68;;;20.00;99.90;;;;;;5115173;28;20220;-74
2022/09/05 07:39:28;;;;;;;6.25;5.68;;;20.30;99.90;;;;;;5115206;28;20245;-75
2022/09/05 07:41:58;;;;;;;6.30;5.70;;;20.60;99.90;;;;;;5114815;28;20253;-75
2022/09/05 07:44:29;;;;;;;6.72;6.15;;;20.80;99.90;;;;;;5114813;28;20199;-75
2022/09/05 07:47:03;;;;;;;5.70;5.22;;;21.00;99.90;;;;;;5114591;28;20196;-75
2022/09/05 07:49:33;;;;;;;6.75;6.15;;;21.30;99.90;;;;;;5114960;28;20206;-75
2022/09/05 07:52:08;;;;;;;5.55;5.03;;;21.40;99.90;;;;;;5114852;28;20199;-76
2022/09/05 07:54:41;;;;;;;6.30;5.38;;;21.70;99.90;;;;;;5114584;28;20268;-75
2022/09/05 07:57:10;;;;;;;5.15;4.75;;;21.80;99.90;;;;;;5114622;28;20314;-75
2022/09/05 07:59:40;;;;;;;5.70;4.70;;;22.00;99.90;;;;;;5114446;28;20560;-75
2022/09/05 08:02:09;;;;;;;5.80;5.22;;;22.30;99.90;;;;;;5114847;28;20282;-75
2022/09/05 08:04:38;;;;;;;5.18;4.78;;;22.50;99.90;;;;;;5114609;28;20252;-75
2022/09/05 08:07:10;;;;;;;4.85;4.45;;;22.70;99.90;;;;;;5114573;28;20200;-75
2022/09/05 08:09:40;;;;;;;5.28;4.78;;;22.90;99.90;;;;;;5114474;28;20248;-75
2022/09/05 08:12:13;;;;;;;5.10;4.60;;;23.10;99.90;;;;;;5114349;28;20524;-75
2022/09/05 08:14:44;;;;;;;5.72;4.60;;;23.10;99.90;;;;;;5114452;28;20341;-75
2022/09/05 08:17:16;;;;;;;4.72;4.15;;;23.10;99.90;;;;;;5114325;28;20276;-75
2022/09/05 08:19:58;;;;;;;4.97;4.35;;;23.10;99.90;;;;;;5114126;28;20192;-75
2022/09/05 08:22:31;;;;;;;4.60;4.20;;;23.20;99.90;;;;;;5114031;28;20191;-75
2022/09/05 08:25:06;;;;;;;5.38;4.75;;;23.40;99.90;;;;;;5114184;28;20556;-75
2022/09/05 08:27:44;;;;;;;8.77;4.57;;;23.60;99.90;;;;;;5114278;28;20206;-75
2022/09/05 08:30:12;;;;;;;6.20;4.15;;;23.80;99.90;;;;;;5114049;28;20203;-75
2022/09/05 08:32:44;;;;;;;4.72;4.20;;;24.00;99.90;;;;;;5113891;28;20199;-75
2022/09/05 08:35:17;;;;;;;6.13;3.90;;;24.10;99.90;;;;;;5114231;28;20290;-75
2022/09/05 08:37:49;;;;;;;6.22;4.10;;;24.20;99.90;;;;;;5114001;28;20249;-75
2022/09/05 08:40:26;;;;;;;6.38;4.20;;;24.20;99.90;;;;;;5114010;28;20203;-75
2022/09/05 08:42:59;;;;;;;4.30;3.65;;;24.40;99.90;;;;;;5113707;28;20245;-75
2022/09/05 08:45:34;;;;;;;5.43;3.50;;;24.40;99.90;;;;;;5113922;28;20199;-75
2022/09/05 08:48:17;;;;;;;7.93;4.00;;;24.60;99.90;;;;;;5113696;28;20238;-75
2022/09/05 08:51:02;;;;;;;3.85;3.47;;;24.90;99.90;;;;;;5113806;28;20200;-75
2022/09/05 08:53:45;;;;;;;4.10;3.35;;;25.30;99.90;;;;;;5113743;28;20241;-75
2022/09/05 08:56:17;;;;;;;6.35;3.30;;;25.40;99.90;;;;;;5113625;28;20231;-75
2022/09/05 08:59:03;;;;;;;6.10;3.50;;;25.50;99.90;;;;;;5113797;28;20200;-75
2022/09/05 09:01:34;;;;;;;5.20;2.67;;;25.70;99.90;;;;;;5113574;28;20559;-75
2022/09/05 09:04:11;;;;;;;3.20;3.00;;;25.60;99.90;;;;;;5113410;28;20225;-75
2022/09/05 09:07:06;;;;;;;3.40;3.10;;;25.50;99.90;;;;;;5113728;28;20232;-75
2022/09/05 09:09:57;;;;;;;4.05;3.00;;;25.90;99.90;;;;;;5113344;28;20196;-75
2022/09/05 09:13:00;;;;;;;3.42;2.67;;;25.60;99.90;;;;;;5113324;28;20203;-75
2022/09/05 09:15:34;;;;;;;4.25;2.78;;;26.10;99.90;;;;;;5113515;28;20240;-75
2022/09/05 09:18:11;;;;;;;5.15;2.88;;;26.50;99.90;;;;;;5113340;28;20249;-75
2022/09/05 09:20:48;;;;;;;6.35;2.60;;;26.70;99.90;;;;;;5113214;28;20199;-75
2022/09/05 09:23:27;;;;;;;3.60;2.58;;;26.90;99.90;;;;;;5113585;28;20199;-75
2022/09/05 09:26:07;;;;;;;2.92;2.45;;;27.30;99.90;;;;;;5113465;28;20233;-75
2022/09/05 09:28:48;;;;;;;4.53;2.38;;;27.40;99.90;;;;;;5113205;28;20662;-75
2022/09/05 09:31:23;;;;;;;4.72;2.60;;;26.70;99.90;;;;;;5113209;28;20268;-75
2022/09/05 09:33:57;;;;;;;2.58;2.38;;;26.80;99.90;;;;;;5113349;28;20256;-75
2022/09/05 09:36:45;;;;;;;4.18;2.75;;;27.20;99.90;;;;;;5113237;28;20227;-75
2022/09/05 09:39:33;;;;;;;2.25;2.05;;;27.40;99.90;;;;;;5113100;28;20647;-75
2022/09/05 09:42:21;;;;;;;6.22;2.63;;;27.30;99.90;;;;;;5114816;28;20639;-75
2022/09/05 09:45:16;;;;;;;6.95;2.60;;;27.50;99.90;;;;;;5117206;28;20245;-75
2022/09/05 09:48:02;;;;;;;4.80;2.42;;;27.90;99.90;;;;;;5117257;28;20203;-75
2022/09/05 09:50:56;;;;;;;3.10;2.20;;;27.70;99.90;;;;;;5117219;28;20248;-75
2022/09/05 09:53:37;;;;;;;4.53;2.10;;;28.10;99.90;;;;;;5110299;28;20746;-75
2022/09/05 09:56:27;;;;;;;2.30;2.10;;;28.30;99.90;;;;;;5116778;28;20286;-76
2022/09/05 09:59:22;;;;;;;3.40;2.35;;;28.70;99.90;;;;;;5113787;28;20236;-76
2022/09/05 10:01:56;;;;;;;2.78;2.50;;;29.20;99.80;;;;;;5116810;28;20203;-76
2022/09/05 10:04:46;;;;;;;3.80;2.13;;;29.30;99.30;;;;;;5116632;28;20199;-74
2022/09/05 10:07:41;;;;;;;2.05;1.83;;;29.20;98.80;;;;;;5116877;27;20256;-76
2022/09/05 10:10:47;;;;;;;2.05;1.92;;;29.50;96.70;;;;;;5116732;28;20196;-77
2022/09/05 10:13:34;;;;;;;2.75;2.28;;;29.00;95.30;;;;;;5116606;28;20669;-76
2022/09/05 10:16:38;;;;;;;3.10;2.00;;;28.80;96.00;;;;;;5116716;28;20596;-76
2022/09/05 10:19:34;;;;;;;5.43;2.13;;;28.90;95.30;;;;;;5116384;28;20256;-76
2022/09/05 10:22:25;;;;;;;3.75;1.92;;;29.70;95.10;;;;;;5116551;28;20256;-76
2022/09/05 10:25:23;;;;;;;2.35;1.90;;;30.40;91.90;;;;;;5116459;28;20199;-76
2022/09/05 10:28:03;;;;;;;1.95;1.75;;;30.70;91.80;;;;;;5116570;28;20210;-76
2022/09/05 10:30:44;;;;;;;2.00;1.90;;;30.80;90.70;;;;;;5116325;28;20270;-76
2022/09/05 10:33:28;;;;;;;3.80;1.90;;;31.30;89.00;;;;;;5116292;28;20199;-76
2022/09/05 10:36:02;;;;;;;2.50;1.77;;;32.00;82.70;;;;;;5116098;28;20527;-76
2022/09/05 10:38:37;;;;;;;3.30;2.08;;;32.50;76.20;;;;;;5116237;28;20223;-76
2022/09/05 10:41:09;;;;;;;2.05;1.88;;;33.10;77.00;;;;;;5116159;28;20247;-76
2022/09/05 10:43:46;;;;;;;3.70;2.17;;;33.60;74.10;;;;;;5116041;28;20199;-76
2022/09/05 10:46:24;;;;;;;2.42;2.00;;;34.00;66.20;;;;;;5115750;28;20221;-76
2022/09/05 10:48:54;;;;;;;2.10;1.90;;;32.70;67.50;;;;;;5115990;28;20191;-76
2022/09/05 10:51:28;;;;;;;2.55;2.30;;;33.90;68.50;;;;;;5115895;28;20555;-76
2022/09/05 10:54:11;;;;;;;2.25;1.77;;;35.20;63.90;;;;;;5115057;28;20316;-76
2022/09/05 10:56:43;;;;;;;2.08;1.98;;;34.60;61.80;;;;;;5115514;28;20267;-76
2022/09/05 10:59:19;;;;;;;3.90;2.20;;;32.90;60.00;;;;;;5116787;28;20195;-76
2022/09/05 11:01:53;;;;;;;2.28;1.98;;;32.50;61.50;;;;;;5117618;28;20217;-76
2022/09/05 11:04:38;;;;;;;1.92;1.80;;;33.50;59.80;;;;;;5115611;28;20661;-75
2022/09/05 11:07:12;;;;;;;3.13;2.10;;;33.80;59.00;;;;;;5115435;28;20203;-75
2022/09/05 11:09:59;;;;;;;3.15;1.75;;;33.00;58.60;;;;;;5115835;28;20275;-75
2022/09/05 11:12:51;;;;;;;2.58;2.05;;;33.10;59.30;;;;;;5115483;28;20655;-75
2022/09/05 11:15:27;;;;;;;3.78;1.90;;;34.40;56.30;;;;;;5115396;28;20195;-75
2022/09/05 11:17:59;;;;;;;1.73;1.63;;;35.80;55.20;;;;;;5115467;28;20328;-77
2022/09/05 11:20:46;;;;;;;2.60;2.05;;;35.50;53.10;;;;;;5115385;28;20715;-76
2022/09/05 11:23:19;;;;;;;3.72;1.92;;;34.80;54.00;;;;;;5115309;27;20377;-76
2022/09/05 11:25:52;;;;;;;6.45;2.20;;;35.20;52.20;;;;;;5115280;28;20203;-77
2022/09/05 11:28:25;;;;;;;2.10;1.90;;;35.30;51.90;;;;;;5115347;28;20260;-75
2022/09/05 11:30:56;;;;;;;3.38;2.00;;;36.60;48.60;;;;;;5115102;28;20196;-75
2022/09/05 11:33:59;;;;;;;1.92;1.83;;;36.70;48.60;;;;;;5115561;28;20190;-77
2022/09/05 11:36:31;;;;;;;1.90;1.80;;;38.70;46.20;;;;;;5115259;28;20271;-76
2022/09/05 11:39:12;;;;;;;2.67;2.20;;;38.10;43.30;;;;;;5114972;28;20219;-76
2022/09/05 11:42:02;;;;;;;2.20;2.00;;;39.10;42.60;;;;;;5115086;28;20223;-76
2022/09/05 11:44:36;;;;;;;2.17;1.95;;;39.60;41.00;;;;;;5115087;28;20235;-77
2022/09/05 11:47:37;;;;;;;2.65;1.90;;;40.70;38.30;;;;;;5115205;28;20539;-76
2022/09/05 11:50:35;;;;;;;2.70;1.95;;;41.30;35.60;;;;;;5115389;28;20607;-75
2022/09/05 11:53:27;;;;;;;1.90;1.67;;;41.00;30.80;;;;;;5115221;28;20203;-75
2022/09/05 11:56:26;;;;;;;2.63;1.70;;;39.00;27.80;;;;;;5114981;27;20223;-75
2022/09/05 11:59:14;;;;;;;2.00;1.80;;;38.90;27.70;;;;;;5114742;28;20624;-77
2022/09/05 12:01:55;;;;;;;2.25;1.77;;;39.90;26.40;;;;;;5114858;28;20600;-77
2022/09/05 12:04:45;;;;;;;3.63;1.88;;;39.80;25.90;;;;;;5114593;28;20596;-77
2022/09/05 12:07:36;;;;;;;3.80;1.80;;;39.60;27.00;;;;;;5114664;28;20203;-75
2022/09/05 12:10:17;;;;;;;3.53;1.95;;;39.90;25.30;;;;;;5114657;28;20199;-75
2022/09/05 12:12:53;;;;;;;7.32;2.10;;;37.80;26.20;;;;;;5114648;28;20203;-77
2022/09/05 12:15:32;;;;;;;6.00;1.88;;;37.40;27.80;;;;;;5114463;28;20264;-77
2022/09/05 12:18:14;;;;;;;2.60;1.90;;;38.50;28.90;;;;;;5114461;28;20222;-77
2022/09/05 12:20:51;;;;;;;4.60;1.80;;;38.30;27.50;;;;;;5114452;28;20612;-77
2022/09/05 12:23:30;;;;;;;2.25;2.05;;;37.80;27.10;;;;;;5114425;28;20195;-77
2022/09/05 12:26:04;;;;;;;3.03;1.98;;;38.80;26.80;;;;;;5114224;28;20231;-76
2022/09/05 12:28:39;;;;;;;2.28;1.70;;;40.10;26.20;;;;;;5114108;28;20646;-76
2022/09/05 12:31:14;;;;;;;4.63;2.03;;;41.10;25.00;;;;;;5114240;28;20248;-76
2022/09/05 12:33:46;;;;;;;2.03;1.83;;;40.30;25.00;;;;;;5114123;28;20255;-77
2022/09/05 12:36:22;;;;;;;2.42;1.70;;;40.80;24.70;;;;;;5114229;28;20191;-77
2022/09/05 12:38:52;;;;;;;2.22;1.90;;;41.10;23.50;;;;;;5113882;28;20229;-77
2022/09/05 12:41:23;;;;;;;2.78;1.80;;;39.10;24.50;;;;;;5114161;28;20195;-77
2022/09/05 12:44:21;;;;;;;2.35;1.95;;;37.50;25.30;;;;;;5114052;28;20278;-76
2022/09/05 12:46:56;;;;;;;3.70;1.92;;;36.30;26.50;;;;;;5113682;28;20202;-78
2022/09/05 12:49:32;;;;;;;2.40;1.90;;;37.10;26.40;;;;;;5113875;28;20653;-77
2022/09/05 12:52:03;;;;;;;2.75;1.90;;;37.30;25.90;;;;;;5113859;28;20275;-76
2022/09/05 12:54:34;;;;;;;2.00;1.73;;;36.80;26.00;;;;;;5113524;28;20199;-78
2022/09/05 12:57:09;;;;;;;2.30;1.60;;;38.20;25.90;;;;;;5113614;28;20195;-77
2022/09/05 12:59:39;;;;;;;3.95;2.15;;;40.10;24.60;;;;;;5113671;28;20244;-78
2022/09/05 13:02:14;;;;;;;2.08;1.80;;;40.60;24.00;;;;;;5113801;28;20191;-77
2022/09/05 13:04:45;;;;;;;2.45;1.73;;;41.30;23.60;;;;;;5113702;28;20191;-78
2022/09/05 13:07:17;;;;;;;1.67;1.58;;;40.80;23.60;;;;;;5113736;28;20244;-76
2022/09/05 13:09:47;;;;;;;3.38;1.90;;;38.80;24.20;;;;;;5113551;28;20532;-76
2022/09/05 13:12:18;;;;;;;2.08;1.80;;;37.30;24.90;;;;;;5113747;28;20195;-77
2022/09/05 13:14:56;;;;;;;1.95;1.75;;;35.80;25.90;;;;;;5113776;28;20221;-76
2022/09/05 13:17:37;;;;;;;2.20;2.00;;;35.00;26.70;;;;;;5112784;28;20219;-76
2022/09/05 13:20:15;;;;;;;3.28;1.90;;;34.50;27.10;;;;;;5113398;28;20203;-77
2022/09/05 13:22:44;;;;;;;2.72;1.77;;;33.90;27.40;;;;;;5113668;28;20198;-77
2022/09/05 13:25:17;;;;;;;2.20;2.00;;;33.20;28.20;;;;;;5113420;28;20252;-76
2022/09/05 13:27:55;;;;;;;2.05;1.85;;;33.30;29.30;;;;;;5113446;28;20244;-76
2022/09/05 13:30:24;;;;;;;2.20;2.00;;;33.30;29.10;;;;;;5113362;28;20195;-76
2022/09/05 13:32:53;;;;;;;3.05;1.70;;;32.80;29.00;;;;;;5113145;28;20752;-75
2022/09/05 13:35:24;;;;;;;4.20;2.20;;;32.50;29.40;;;;;;5113562;28;20253;-76
2022/09/05 13:38:01;;;;;;;4.70;2.03;;;32.10;29.90;;;;;;5113270;28;20215;-77
2022/09/05 13:40:33;;;;;;;1.85;1.70;;;31.90;30.00;;;;;;5113127;28;20650;-76
2022/09/05 13:43:07;;;;;;;4.53;1.92;;;31.60;29.80;;;;;;5113179;28;20244;-76
2022/09/05 13:45:45;;;;;;;2.10;1.90;;;31.20;30.40;;;;;;5113181;28;20596;-76
2022/09/05 13:48:31;;;;;;;2.10;1.90;;;30.90;31.10;;;;;;5112926;28;20681;-75
2022/09/05 13:51:08;;;;;;;2.42;2.15;;;30.80;31.30;;;;;;5113110;28;20196;-77
2022/09/05 13:53:50;;;;;;;4.00;2.03;;;30.60;31.90;;;;;;5113471;28;20203;-76